sensor_id;sensor_type;location;lat;lon;timestamp;P1;durP1;ratioP1;P2;durP2;ratioP2
71475;SDS011;59286;59.274;17.974;2023-08-31T00:00:42;4.03;;;2.22;;
71475;SDS011;59286;59.274;17.974;2023-08-31T00:03:09;3.88;;;2.50;;
71475;SDS011;59286;59.274;17.974;2023-08-31T00:05:41;3.38;;;2.47;;
71475;SDS011;59286;59.274;17.974;2023-08-31T00:08:08;3.95;;;2.85;;
71475;SDS011;59286;59.274;17.974;2023-08-31T00:10:35;5.35;;;3.13;;
71475;SDS011;59286;59.274;17.974;2023-08-31T00:13:01;4.13;;;2.80;;
71475;SDS011;59286;59.274;17.974;2023-08-31T00:15:31;4.35;;;2.30;;
71475;SDS011;59286;59.274;17.974;2023-08-31T00:17:58;5.07;;;2.38;;
71475;SDS011;59286;59.274;17.974;2023-08-31T00:20:24;3.13;;;2.45;;
71475;SDS011;59286;59.274;17.974;2023-08-31T00:22:50;2.75;;;2.13;;
71475;SDS011;59286;59.274;17.974;2023-08-31T00:25:15;2.72;;;2.20;;
71475;SDS011;59286;59.274;17.974;2023-08-31T00:27:41;5.47;;;2.03;;
71475;SDS011;59286;59.274;17.974;2023-08-31T00:30:07;2.97;;;2.10;;
71475;SDS011;59286;59.274;17.974;2023-08-31T00:32:34;5.10;;;2.35;;
71475;SDS011;59286;59.274;17.974;2023-08-31T00:34:59;5.22;;;1.80;;
71475;SDS011;59286;59.274;17.974;2023-08-31T00:37:25;3.15;;;2.20;;
71475;SDS011;59286;59.274;17.974;2023-08-31T00:39:50;2.50;;;1.90;;
71475;SDS011;59286;59.274;17.974;2023-08-31T00:42:17;2.97;;;2.15;;
71475;SDS011;59286;59.274;17.974;2023-08-31T00:44:43;2.33;;;2.13;;
71475;SDS011;59286;59.274;17.974;2023-08-31T00:47:08;2.67;;;2.10;;
71475;SDS011;59286;59.274;17.974;2023-08-31T00:49:34;4.93;;;2.30;;
71475;SDS011;59286;59.274;17.974;2023-08-31T00:52:00;5.80;;;1.88;;
71475;SDS011;59286;59.274;17.974;2023-08-31T00:54:25;5.35;;;1.77;;
71475;SDS011;59286;59.274;17.974;2023-08-31T00:56:55;2.72;;;1.90;;
71475;SDS011;59286;59.274;17.974;2023-08-31T00:59:21;2.28;;;1.67;;
71475;SDS011;59286;59.274;17.974;2023-08-31T01:01:51;6.35;;;1.65;;
71475;SDS011;59286;59.274;17.974;2023-08-31T01:04:22;2.55;;;1.70;;
71475;SDS011;59286;59.274;17.974;2023-08-31T01:07:08;3.90;;;1.42;;
71475;SDS011;59286;59.274;17.974;2023-08-31T01:10:25;1.85;;;1.65;;
71475;SDS011;59286;59.274;17.974;2023-08-31T01:13:11;3.10;;;1.65;;
71475;SDS011;59286;59.274;17.974;2023-08-31T01:15:45;2.80;;;1.73;;
71475;SDS011;59286;59.274;17.974;2023-08-31T01:18:15;2.35;;;1.75;;
71475;SDS011;59286;59.274;17.974;2023-08-31T01:23:52;2.22;;;1.40;;
71475;SDS011;59286;59.274;17.974;2023-08-31T01:26:19;3.05;;;1.60;;
71475;SDS011;59286;59.274;17.974;2023-08-31T01:28:45;2.28;;;1.85;;
71475;SDS011;59286;59.274;17.974;2023-08-31T01:31:15;2.95;;;1.70;;
71475;SDS011;59286;59.274;17.974;2023-08-31T01:33:40;2.45;;;1.90;;
71475;SDS011;59286;59.274;17.974;2023-08-31T01:36:08;4.05;;;1.80;;
71475;SDS011;59286;59.274;17.974;2023-08-31T01:38:50;1.85;;;1.75;;
71475;SDS011;59286;59.274;17.974;2023-08-31T01:41:44;2.60;;;1.80;;
71475;SDS011;59286;59.274;17.974;2023-08-31T01:44:15;2.45;;;1.67;;
71475;SDS011;59286;59.274;17.974;2023-08-31T01:46:45;2.45;;;2.10;;
71475;SDS011;59286;59.274;17.974;2023-08-31T01:49:11;3.95;;;2.10;;
71475;SDS011;59286;59.274;17.974;2023-08-31T01:51:36;2.95;;;1.70;;
71475;SDS011;59286;59.274;17.974;2023-08-31T01:54:01;2.53;;;1.45;;
71475;SDS011;59286;59.274;17.974;2023-08-31T01:56:27;2.22;;;1.50;;
71475;SDS011;59286;59.274;17.974;2023-08-31T01:58:52;2.28;;;1.40;;
71475;SDS011;59286;59.274;17.974;2023-08-31T02:01:17;4.47;;;1.80;;
71475;SDS011;59286;59.274;17.974;2023-08-31T02:03:43;3.20;;;1.50;;
71475;SDS011;59286;59.274;17.974;2023-08-31T02:06:08;2.55;;;1.13;;
71475;SDS011;59286;59.274;17.974;2023-08-31T02:08:33;4.60;;;1.50;;
71475;SDS011;59286;59.274;17.974;2023-08-31T02:10:59;4.35;;;1.52;;
71475;SDS011;59286;59.274;17.974;2023-08-31T02:13:24;2.65;;;1.80;;
71475;SDS011;59286;59.274;17.974;2023-08-31T02:15:53;2.50;;;1.45;;
71475;SDS011;59286;59.274;17.974;2023-08-31T02:18:18;2.97;;;1.58;;
71475;SDS011;59286;59.274;17.974;2023-08-31T02:20:44;1.60;;;1.38;;
71475;SDS011;59286;59.274;17.974;2023-08-31T02:23:09;2.15;;;1.30;;
71475;SDS011;59286;59.274;17.974;2023-08-31T02:25:37;2.20;;;1.23;;
71475;SDS011;59286;59.274;17.974;2023-08-31T02:28:02;2.33;;;1.50;;
71475;SDS011;59286;59.274;17.974;2023-08-31T02:30:28;1.67;;;1.52;;
71475;SDS011;59286;59.274;17.974;2023-08-31T02:32:53;1.80;;;1.50;;
71475;SDS011;59286;59.274;17.974;2023-08-31T02:35:19;2.58;;;1.77;;
71475;SDS011;59286;59.274;17.974;2023-08-31T02:37:44;1.90;;;1.55;;
71475;SDS011;59286;59.274;17.974;2023-08-31T02:40:10;2.63;;;1.55;;
71475;SDS011;59286;59.274;17.974;2023-08-31T02:42:35;2.35;;;1.50;;
71475;SDS011;59286;59.274;17.974;2023-08-31T02:45:01;3.42;;;1.50;;
71475;SDS011;59286;59.274;17.974;2023-08-31T02:47:27;3.15;;;1.50;;
71475;SDS011;59286;59.274;17.974;2023-08-31T02:49:53;3.03;;;1.50;;
71475;SDS011;59286;59.274;17.974;2023-08-31T02:52:18;2.33;;;1.50;;
71475;SDS011;59286;59.274;17.974;2023-08-31T02:54:43;1.90;;;1.38;;
71475;SDS011;59286;59.274;17.974;2023-08-31T02:57:09;4.53;;;1.60;;
71475;SDS011;59286;59.274;17.974;2023-08-31T02:59:34;1.70;;;1.50;;
71475;SDS011;59286;59.274;17.974;2023-08-31T03:02:01;2.13;;;1.65;;
71475;SDS011;59286;59.274;17.974;2023-08-31T03:04:27;3.78;;;1.55;;
71475;SDS011;59286;59.274;17.974;2023-08-31T03:06:53;3.53;;;1.88;;
71475;SDS011;59286;59.274;17.974;2023-08-31T03:09:18;2.35;;;1.52;;
71475;SDS011;59286;59.274;17.974;2023-08-31T03:11:45;4.93;;;1.90;;
71475;SDS011;59286;59.274;17.974;2023-08-31T03:14:10;4.95;;;2.00;;
71475;SDS011;59286;59.274;17.974;2023-08-31T03:16:36;2.22;;;2.03;;
71475;SDS011;59286;59.274;17.974;2023-08-31T03:19:01;2.72;;;2.10;;
71475;SDS011;59286;59.274;17.974;2023-08-31T03:21:26;2.42;;;1.88;;
71475;SDS011;59286;59.274;17.974;2023-08-31T03:23:52;4.18;;;1.95;;
71475;SDS011;59286;59.274;17.974;2023-08-31T03:26:17;2.67;;;2.47;;
71475;SDS011;59286;59.274;17.974;2023-08-31T03:28:42;2.63;;;1.95;;
71475;SDS011;59286;59.274;17.974;2023-08-31T03:31:08;3.30;;;2.58;;
71475;SDS011;59286;59.274;17.974;2023-08-31T03:33:33;2.60;;;2.10;;
71475;SDS011;59286;59.274;17.974;2023-08-31T03:36:02;2.70;;;2.28;;
71475;SDS011;59286;59.274;17.974;2023-08-31T03:38:29;2.65;;;2.00;;
71475;SDS011;59286;59.274;17.974;2023-08-31T03:40:57;2.45;;;2.10;;
71475;SDS011;59286;59.274;17.974;2023-08-31T03:43:23;3.85;;;2.20;;
71475;SDS011;59286;59.274;17.974;2023-08-31T03:45:48;4.47;;;2.45;;
71475;SDS011;59286;59.274;17.974;2023-08-31T03:48:14;3.58;;;2.20;;
71475;SDS011;59286;59.274;17.974;2023-08-31T03:50:39;4.15;;;2.17;;
71475;SDS011;59286;59.274;17.974;2023-08-31T03:53:05;3.28;;;2.83;;
71475;SDS011;59286;59.274;17.974;2023-08-31T03:55:30;8.30;;;2.70;;
71475;SDS011;59286;59.274;17.974;2023-08-31T03:57:55;2.75;;;2.15;;
71475;SDS011;59286;59.274;17.974;2023-08-31T04:00:21;3.58;;;2.50;;
71475;SDS011;59286;59.274;17.974;2023-08-31T04:02:46;4.35;;;2.50;;
71475;SDS011;59286;59.274;17.974;2023-08-31T04:05:11;3.22;;;2.20;;
71475;SDS011;59286;59.274;17.974;2023-08-31T04:07:39;3.20;;;2.00;;
71475;SDS011;59286;59.274;17.974;2023-08-31T04:10:05;4.25;;;2.20;;
71475;SDS011;59286;59.274;17.974;2023-08-31T04:12:31;2.03;;;1.77;;
71475;SDS011;59286;59.274;17.974;2023-08-31T04:14:56;4.22;;;1.92;;
71475;SDS011;59286;59.274;17.974;2023-08-31T04:17:22;2.05;;;1.88;;
71475;SDS011;59286;59.274;17.974;2023-08-31T04:19:47;2.40;;;2.20;;
71475;SDS011;59286;59.274;17.974;2023-08-31T04:22:12;2.45;;;1.92;;
71475;SDS011;59286;59.274;17.974;2023-08-31T04:24:38;2.03;;;1.52;;
71475;SDS011;59286;59.274;17.974;2023-08-31T04:27:03;2.80;;;2.03;;
71475;SDS011;59286;59.274;17.974;2023-08-31T04:29:28;2.08;;;1.90;;
71475;SDS011;59286;59.274;17.974;2023-08-31T04:31:54;2.75;;;2.20;;
71475;SDS011;59286;59.274;17.974;2023-08-31T04:34:19;2.65;;;1.95;;
71475;SDS011;59286;59.274;17.974;2023-08-31T04:36:44;2.38;;;2.17;;
71475;SDS011;59286;59.274;17.974;2023-08-31T04:39:10;3.92;;;2.20;;
71475;SDS011;59286;59.274;17.974;2023-08-31T04:41:36;2.53;;;1.80;;
71475;SDS011;59286;59.274;17.974;2023-08-31T04:44:01;5.55;;;2.45;;
71475;SDS011;59286;59.274;17.974;2023-08-31T04:46:26;2.40;;;1.95;;
71475;SDS011;59286;59.274;17.974;2023-08-31T04:48:52;2.40;;;1.63;;
71475;SDS011;59286;59.274;17.974;2023-08-31T04:51:30;2.25;;;1.85;;
71475;SDS011;59286;59.274;17.974;2023-08-31T04:53:57;3.33;;;2.10;;
71475;SDS011;59286;59.274;17.974;2023-08-31T04:56:23;3.22;;;2.10;;
71475;SDS011;59286;59.274;17.974;2023-08-31T04:58:51;2.03;;;1.85;;
71475;SDS011;59286;59.274;17.974;2023-08-31T05:01:17;2.05;;;1.85;;
71475;SDS011;59286;59.274;17.974;2023-08-31T05:03:42;2.67;;;2.05;;
71475;SDS011;59286;59.274;17.974;2023-08-31T05:06:07;3.20;;;2.28;;
71475;SDS011;59286;59.274;17.974;2023-08-31T05:08:33;4.00;;;2.40;;
71475;SDS011;59286;59.274;17.974;2023-08-31T05:10:58;3.28;;;2.10;;
71475;SDS011;59286;59.274;17.974;2023-08-31T05:13:24;3.38;;;2.38;;
71475;SDS011;59286;59.274;17.974;2023-08-31T05:15:49;3.13;;;2.42;;
71475;SDS011;59286;59.274;17.974;2023-08-31T05:18:15;3.28;;;2.40;;
71475;SDS011;59286;59.274;17.974;2023-08-31T05:20:44;6.38;;;2.72;;
71475;SDS011;59286;59.274;17.974;2023-08-31T05:23:09;4.28;;;2.30;;
71475;SDS011;59286;59.274;17.974;2023-08-31T05:25:35;3.47;;;2.10;;
71475;SDS011;59286;59.274;17.974;2023-08-31T05:28:00;3.10;;;2.40;;
71475;SDS011;59286;59.274;17.974;2023-08-31T05:30:25;4.10;;;2.10;;
71475;SDS011;59286;59.274;17.974;2023-08-31T05:32:51;2.38;;;2.03;;
71475;SDS011;59286;59.274;17.974;2023-08-31T05:35:16;2.58;;;2.03;;
71475;SDS011;59286;59.274;17.974;2023-08-31T05:37:42;3.17;;;2.38;;
71475;SDS011;59286;59.274;17.974;2023-08-31T05:40:08;2.90;;;2.22;;
71475;SDS011;59286;59.274;17.974;2023-08-31T05:42:35;2.47;;;1.73;;
71475;SDS011;59286;59.274;17.974;2023-08-31T05:45:00;3.35;;;2.00;;
71475;SDS011;59286;59.274;17.974;2023-08-31T05:47:26;5.90;;;1.90;;
71475;SDS011;59286;59.274;17.974;2023-08-31T05:49:51;4.85;;;1.90;;
71475;SDS011;59286;59.274;17.974;2023-08-31T05:52:17;2.75;;;1.60;;
71475;SDS011;59286;59.274;17.974;2023-08-31T05:54:42;2.70;;;1.70;;
71475;SDS011;59286;59.274;17.974;2023-08-31T05:57:07;3.25;;;2.13;;
71475;SDS011;59286;59.274;17.974;2023-08-31T05:59:33;5.65;;;2.05;;
71475;SDS011;59286;59.274;17.974;2023-08-31T06:01:58;2.50;;;1.50;;
71475;SDS011;59286;59.274;17.974;2023-08-31T06:04:23;3.00;;;1.40;;
71475;SDS011;59286;59.274;17.974;2023-08-31T06:06:49;1.67;;;1.42;;
71475;SDS011;59286;59.274;17.974;2023-08-31T06:09:16;3.03;;;1.20;;
71475;SDS011;59286;59.274;17.974;2023-08-31T06:11:42;3.35;;;1.40;;
71475;SDS011;59286;59.274;17.974;2023-08-31T06:14:07;2.70;;;1.55;;
71475;SDS011;59286;59.274;17.974;2023-08-31T06:16:33;2.88;;;1.50;;
71475;SDS011;59286;59.274;17.974;2023-08-31T06:18:58;4.13;;;1.30;;
71475;SDS011;59286;59.274;17.974;2023-08-31T06:21:23;4.68;;;1.90;;
71475;SDS011;59286;59.274;17.974;2023-08-31T06:23:48;4.10;;;1.35;;
71475;SDS011;59286;59.274;17.974;2023-08-31T06:26:14;3.45;;;1.23;;
71475;SDS011;59286;59.274;17.974;2023-08-31T06:28:39;2.92;;;1.10;;
71475;SDS011;59286;59.274;17.974;2023-08-31T06:31:04;2.75;;;1.00;;
71475;SDS011;59286;59.274;17.974;2023-08-31T06:33:30;1.90;;;1.08;;
71475;SDS011;59286;59.274;17.974;2023-08-31T06:35:55;1.63;;;1.08;;
71475;SDS011;59286;59.274;17.974;2023-08-31T06:38:21;4.88;;;1.20;;
71475;SDS011;59286;59.274;17.974;2023-08-31T06:40:46;5.13;;;1.48;;
71475;SDS011;59286;59.274;17.974;2023-08-31T06:43:12;2.22;;;1.30;;
71475;SDS011;59286;59.274;17.974;2023-08-31T06:45:37;6.00;;;1.02;;
71475;SDS011;59286;59.274;17.974;2023-08-31T06:48:03;5.07;;;1.05;;
71475;SDS011;59286;59.274;17.974;2023-08-31T06:50:29;1.63;;;0.90;;
71475;SDS011;59286;59.274;17.974;2023-08-31T06:52:54;2.92;;;0.93;;
71475;SDS011;59286;59.274;17.974;2023-08-31T06:55:20;3.83;;;1.38;;
71475;SDS011;59286;59.274;17.974;2023-08-31T06:57:45;1.52;;;1.20;;
71475;SDS011;59286;59.274;17.974;2023-08-31T07:00:11;1.27;;;0.90;;
71475;SDS011;59286;59.274;17.974;2023-08-31T07:02:39;1.05;;;1.00;;
71475;SDS011;59286;59.274;17.974;2023-08-31T07:05:05;1.58;;;1.00;;
71475;SDS011;59286;59.274;17.974;2023-08-31T07:07:31;1.75;;;1.10;;
71475;SDS011;59286;59.274;17.974;2023-08-31T07:09:57;1.85;;;0.90;;
71475;SDS011;59286;59.274;17.974;2023-08-31T07:12:22;0.88;;;0.80;;
71475;SDS011;59286;59.274;17.974;2023-08-31T07:14:48;2.85;;;1.13;;
71475;SDS011;59286;59.274;17.974;2023-08-31T07:17:13;1.77;;;0.80;;
71475;SDS011;59286;59.274;17.974;2023-08-31T07:19:38;1.33;;;1.00;;
71475;SDS011;59286;59.274;17.974;2023-08-31T07:22:04;1.10;;;1.00;;
71475;SDS011;59286;59.274;17.974;2023-08-31T07:24:31;1.50;;;1.05;;
71475;SDS011;59286;59.274;17.974;2023-08-31T07:26:56;1.95;;;1.17;;
71475;SDS011;59286;59.274;17.974;2023-08-31T07:29:22;1.70;;;1.00;;
71475;SDS011;59286;59.274;17.974;2023-08-31T07:31:47;2.75;;;1.02;;
71475;SDS011;59286;59.274;17.974;2023-08-31T07:34:12;2.47;;;1.15;;
71475;SDS011;59286;59.274;17.974;2023-08-31T07:36:38;1.90;;;1.00;;
71475;SDS011;59286;59.274;17.974;2023-08-31T07:39:04;3.38;;;0.90;;
71475;SDS011;59286;59.274;17.974;2023-08-31T07:41:29;1.30;;;1.02;;
71475;SDS011;59286;59.274;17.974;2023-08-31T07:43:55;2.63;;;0.98;;
71475;SDS011;59286;59.274;17.974;2023-08-31T07:46:21;2.97;;;0.70;;
71475;SDS011;59286;59.274;17.974;2023-08-31T07:48:46;4.85;;;1.00;;
71475;SDS011;59286;59.274;17.974;2023-08-31T07:51:13;2.15;;;1.00;;
71475;SDS011;59286;59.274;17.974;2023-08-31T07:53:39;1.50;;;0.98;;
71475;SDS011;59286;59.274;17.974;2023-08-31T07:56:04;2.08;;;1.02;;
71475;SDS011;59286;59.274;17.974;2023-08-31T07:58:29;3.05;;;1.00;;
71475;SDS011;59286;59.274;17.974;2023-08-31T08:00:55;1.10;;;0.68;;
71475;SDS011;59286;59.274;17.974;2023-08-31T08:03:21;2.70;;;1.10;;
71475;SDS011;59286;59.274;17.974;2023-08-31T08:05:47;2.40;;;1.10;;
71475;SDS011;59286;59.274;17.974;2023-08-31T08:08:13;1.75;;;0.90;;
71475;SDS011;59286;59.274;17.974;2023-08-31T08:10:38;1.67;;;0.93;;
71475;SDS011;59286;59.274;17.974;2023-08-31T08:13:03;1.50;;;0.90;;
71475;SDS011;59286;59.274;17.974;2023-08-31T08:15:29;1.25;;;0.80;;
71475;SDS011;59286;59.274;17.974;2023-08-31T08:17:55;1.83;;;1.00;;
71475;SDS011;59286;59.274;17.974;2023-08-31T08:20:22;1.58;;;0.85;;
71475;SDS011;59286;59.274;17.974;2023-08-31T08:22:48;1.90;;;0.80;;
71475;SDS011;59286;59.274;17.974;2023-08-31T08:25:17;1.90;;;0.90;;
71475;SDS011;59286;59.274;17.974;2023-08-31T08:27:42;1.50;;;0.82;;
71475;SDS011;59286;59.274;17.974;2023-08-31T08:30:08;1.83;;;1.13;;
71475;SDS011;59286;59.274;17.974;2023-08-31T08:32:34;1.10;;;0.95;;
71475;SDS011;59286;59.274;17.974;2023-08-31T08:35:00;3.50;;;1.00;;
71475;SDS011;59286;59.274;17.974;2023-08-31T08:37:25;0.95;;;0.60;;
71475;SDS011;59286;59.274;17.974;2023-08-31T08:39:50;1.13;;;0.68;;
71475;SDS011;59286;59.274;17.974;2023-08-31T08:42:17;2.28;;;1.10;;
71475;SDS011;59286;59.274;17.974;2023-08-31T08:44:43;1.88;;;0.90;;
71475;SDS011;59286;59.274;17.974;2023-08-31T08:47:08;1.10;;;0.80;;
71475;SDS011;59286;59.274;17.974;2023-08-31T08:49:35;2.15;;;1.00;;
71475;SDS011;59286;59.274;17.974;2023-08-31T08:52:01;1.98;;;0.90;;
71475;SDS011;59286;59.274;17.974;2023-08-31T08:54:27;1.52;;;0.75;;
71475;SDS011;59286;59.274;17.974;2023-08-31T08:57:05;2.03;;;0.82;;
71475;SDS011;59286;59.274;17.974;2023-08-31T08:59:31;1.23;;;0.77;;
71475;SDS011;59286;59.274;17.974;2023-08-31T09:01:57;1.20;;;0.73;;
71475;SDS011;59286;59.274;17.974;2023-08-31T09:04:22;1.50;;;0.70;;
71475;SDS011;59286;59.274;17.974;2023-08-31T09:06:48;3.90;;;1.10;;
71475;SDS011;59286;59.274;17.974;2023-08-31T09:09:15;2.35;;;0.77;;
71475;SDS011;59286;59.274;17.974;2023-08-31T09:11:41;2.40;;;0.90;;
71475;SDS011;59286;59.274;17.974;2023-08-31T09:14:17;1.17;;;0.90;;
71475;SDS011;59286;59.274;17.974;2023-08-31T09:16:48;1.15;;;0.70;;
71475;SDS011;59286;59.274;17.974;2023-08-31T09:19:24;2.13;;;1.00;;
71475;SDS011;59286;59.274;17.974;2023-08-31T09:21:55;1.08;;;0.75;;
71475;SDS011;59286;59.274;17.974;2023-08-31T09:24:21;1.15;;;0.73;;
71475;SDS011;59286;59.274;17.974;2023-08-31T09:26:49;4.57;;;0.80;;
71475;SDS011;59286;59.274;17.974;2023-08-31T09:29:17;2.08;;;0.77;;
71475;SDS011;59286;59.274;17.974;2023-08-31T09:31:43;3.22;;;0.90;;
71475;SDS011;59286;59.274;17.974;2023-08-31T09:34:10;1.55;;;0.77;;
71475;SDS011;59286;59.274;17.974;2023-08-31T09:36:36;1.10;;;0.77;;
71475;SDS011;59286;59.274;17.974;2023-08-31T09:39:02;1.77;;;0.85;;
71475;SDS011;59286;59.274;17.974;2023-08-31T09:41:27;2.08;;;1.02;;
71475;SDS011;59286;59.274;17.974;2023-08-31T09:43:53;1.45;;;0.98;;
71475;SDS011;59286;59.274;17.974;2023-08-31T09:46:20;1.02;;;0.80;;
71475;SDS011;59286;59.274;17.974;2023-08-31T09:48:47;2.22;;;1.05;;
71475;SDS011;59286;59.274;17.974;2023-08-31T09:51:13;1.92;;;0.80;;
71475;SDS011;59286;59.274;17.974;2023-08-31T09:53:42;1.70;;;0.82;;
71475;SDS011;59286;59.274;17.974;2023-08-31T09:56:13;1.70;;;0.95;;
71475;SDS011;59286;59.274;17.974;2023-08-31T09:58:45;1.35;;;1.10;;
71475;SDS011;59286;59.274;17.974;2023-08-31T10:01:11;1.77;;;0.98;;
71475;SDS011;59286;59.274;17.974;2023-08-31T10:03:37;1.48;;;0.82;;
71475;SDS011;59286;59.274;17.974;2023-08-31T10:06:03;1.40;;;0.80;;
71475;SDS011;59286;59.274;17.974;2023-08-31T10:08:29;2.15;;;0.85;;
71475;SDS011;59286;59.274;17.974;2023-08-31T10:10:58;1.35;;;0.70;;
71475;SDS011;59286;59.274;17.974;2023-08-31T10:13:24;1.15;;;0.70;;
71475;SDS011;59286;59.274;17.974;2023-08-31T10:15:52;1.17;;;0.70;;
71475;SDS011;59286;59.274;17.974;2023-08-31T10:18:17;2.85;;;0.77;;
71475;SDS011;59286;59.274;17.974;2023-08-31T10:20:43;1.48;;;0.55;;
71475;SDS011;59286;59.274;17.974;2023-08-31T10:23:10;2.08;;;0.80;;
71475;SDS011;59286;59.274;17.974;2023-08-31T10:28:23;0.95;;;0.80;;
71475;SDS011;59286;59.274;17.974;2023-08-31T10:36:36;0.85;;;0.75;;
71475;SDS011;59286;59.274;17.974;2023-08-31T10:39:10;1.13;;;0.70;;
71475;SDS011;59286;59.274;17.974;2023-08-31T10:41:36;2.15;;;0.82;;
71475;SDS011;59286;59.274;17.974;2023-08-31T10:44:02;3.72;;;1.00;;
71475;SDS011;59286;59.274;17.974;2023-08-31T10:46:41;1.05;;;0.57;;
71475;SDS011;59286;59.274;17.974;2023-08-31T10:51:37;0.95;;;0.75;;
71475;SDS011;59286;59.274;17.974;2023-08-31T10:54:04;1.67;;;0.90;;
71475;SDS011;59286;59.274;17.974;2023-08-31T10:56:30;1.38;;;0.70;;
71475;SDS011;59286;59.274;17.974;2023-08-31T10:58:59;2.20;;;0.77;;
71475;SDS011;59286;59.274;17.974;2023-08-31T11:04:16;1.40;;;0.50;;
71475;SDS011;59286;59.274;17.974;2023-08-31T11:06:41;1.27;;;0.60;;
71475;SDS011;59286;59.274;17.974;2023-08-31T11:09:13;1.55;;;0.57;;
71475;SDS011;59286;59.274;17.974;2023-08-31T11:11:43;0.93;;;0.68;;
71475;SDS011;59286;59.274;17.974;2023-08-31T11:14:09;1.70;;;0.65;;
71475;SDS011;59286;59.274;17.974;2023-08-31T11:16:37;0.55;;;0.47;;
71475;SDS011;59286;59.274;17.974;2023-08-31T11:19:03;1.40;;;0.70;;
71475;SDS011;59286;59.274;17.974;2023-08-31T11:21:29;1.02;;;0.50;;
71475;SDS011;59286;59.274;17.974;2023-08-31T11:23:56;0.57;;;0.47;;
71475;SDS011;59286;59.274;17.974;2023-08-31T11:26:23;0.85;;;0.60;;
71475;SDS011;59286;59.274;17.974;2023-08-31T11:28:50;0.90;;;0.63;;
71475;SDS011;59286;59.274;17.974;2023-08-31T11:31:23;2.08;;;0.73;;
71475;SDS011;59286;59.274;17.974;2023-08-31T11:33:49;2.00;;;0.60;;
71475;SDS011;59286;59.274;17.974;2023-08-31T11:36:14;2.00;;;0.70;;
71475;SDS011;59286;59.274;17.974;2023-08-31T11:38:45;3.17;;;0.52;;
71475;SDS011;59286;59.274;17.974;2023-08-31T11:41:13;0.93;;;0.60;;
71475;SDS011;59286;59.274;17.974;2023-08-31T11:43:38;1.05;;;0.40;;
71475;SDS011;59286;59.274;17.974;2023-08-31T11:46:04;1.15;;;0.68;;
71475;SDS011;59286;59.274;17.974;2023-08-31T11:48:30;2.72;;;0.40;;
71475;SDS011;59286;59.274;17.974;2023-08-31T11:50:57;0.90;;;0.60;;
71475;SDS011;59286;59.274;17.974;2023-08-31T11:53:23;0.63;;;0.43;;
71475;SDS011;59286;59.274;17.974;2023-08-31T11:55:50;0.63;;;0.57;;
71475;SDS011;59286;59.274;17.974;2023-08-31T11:58:16;3.67;;;0.57;;
71475;SDS011;59286;59.274;17.974;2023-08-31T12:00:45;0.75;;;0.60;;
71475;SDS011;59286;59.274;17.974;2023-08-31T12:03:19;1.02;;;0.60;;
71475;SDS011;59286;59.274;17.974;2023-08-31T12:05:45;2.58;;;0.50;;
71475;SDS011;59286;59.274;17.974;2023-08-31T12:08:11;2.80;;;0.52;;
71475;SDS011;59286;59.274;17.974;2023-08-31T12:10:41;0.98;;;0.60;;
71475;SDS011;59286;59.274;17.974;2023-08-31T12:13:08;1.33;;;0.60;;
71475;SDS011;59286;59.274;17.974;2023-08-31T12:15:34;1.40;;;0.88;;
71475;SDS011;59286;59.274;17.974;2023-08-31T12:18:06;0.60;;;0.45;;
71475;SDS011;59286;59.274;17.974;2023-08-31T12:20:45;0.70;;;0.65;;
71475;SDS011;59286;59.274;17.974;2023-08-31T12:23:19;1.73;;;0.70;;
71475;SDS011;59286;59.274;17.974;2023-08-31T12:25:54;2.05;;;0.70;;
71475;SDS011;59286;59.274;17.974;2023-08-31T12:28:20;1.20;;;0.60;;
71475;SDS011;59286;59.274;17.974;2023-08-31T12:30:53;0.88;;;0.60;;
71475;SDS011;59286;59.274;17.974;2023-08-31T12:33:19;2.17;;;0.68;;
71475;SDS011;59286;59.274;17.974;2023-08-31T12:35:46;1.50;;;0.80;;
71475;SDS011;59286;59.274;17.974;2023-08-31T12:38:12;1.77;;;0.63;;
71475;SDS011;59286;59.274;17.974;2023-08-31T12:40:38;3.00;;;0.60;;
71475;SDS011;59286;59.274;17.974;2023-08-31T12:43:04;5.95;;;0.80;;
71475;SDS011;59286;59.274;17.974;2023-08-31T12:45:29;1.35;;;0.60;;
71475;SDS011;59286;59.274;17.974;2023-08-31T12:47:55;0.75;;;0.50;;
71475;SDS011;59286;59.274;17.974;2023-08-31T12:50:20;0.80;;;0.57;;
71475;SDS011;59286;59.274;17.974;2023-08-31T12:52:46;1.02;;;0.50;;
71475;SDS011;59286;59.274;17.974;2023-08-31T12:55:12;1.67;;;0.60;;
71475;SDS011;59286;59.274;17.974;2023-08-31T12:57:41;1.95;;;0.52;;
71475;SDS011;59286;59.274;17.974;2023-08-31T13:00:07;1.52;;;0.52;;
71475;SDS011;59286;59.274;17.974;2023-08-31T13:02:42;2.03;;;0.80;;
71475;SDS011;59286;59.274;17.974;2023-08-31T13:05:08;1.25;;;0.68;;
71475;SDS011;59286;59.274;17.974;2023-08-31T13:07:35;1.35;;;0.68;;
71475;SDS011;59286;59.274;17.974;2023-08-31T13:10:02;2.55;;;0.70;;
71475;SDS011;59286;59.274;17.974;2023-08-31T13:12:29;4.43;;;0.77;;
71475;SDS011;59286;59.274;17.974;2023-08-31T13:14:55;3.22;;;0.80;;
71475;SDS011;59286;59.274;17.974;2023-08-31T13:17:21;3.90;;;0.88;;
71475;SDS011;59286;59.274;17.974;2023-08-31T13:19:48;3.58;;;0.70;;
71475;SDS011;59286;59.274;17.974;2023-08-31T13:22:13;0.55;;;0.50;;
71475;SDS011;59286;59.274;17.974;2023-08-31T13:24:40;0.98;;;0.68;;
71475;SDS011;59286;59.274;17.974;2023-08-31T13:27:06;2.75;;;0.65;;
71475;SDS011;59286;59.274;17.974;2023-08-31T13:29:31;1.60;;;0.60;;
71475;SDS011;59286;59.274;17.974;2023-08-31T13:31:57;0.77;;;0.60;;
71475;SDS011;59286;59.274;17.974;2023-08-31T13:34:22;1.00;;;0.52;;
71475;SDS011;59286;59.274;17.974;2023-08-31T13:36:47;1.30;;;0.63;;
71475;SDS011;59286;59.274;17.974;2023-08-31T13:39:13;1.70;;;0.65;;
71475;SDS011;59286;59.274;17.974;2023-08-31T13:41:38;2.53;;;0.80;;
71475;SDS011;59286;59.274;17.974;2023-08-31T13:44:04;2.42;;;0.70;;
71475;SDS011;59286;59.274;17.974;2023-08-31T13:46:29;1.58;;;0.60;;
71475;SDS011;59286;59.274;17.974;2023-08-31T13:48:56;0.75;;;0.70;;
71475;SDS011;59286;59.274;17.974;2023-08-31T13:51:21;1.17;;;0.60;;
71475;SDS011;59286;59.274;17.974;2023-08-31T13:53:47;1.50;;;0.52;;
71475;SDS011;59286;59.274;17.974;2023-08-31T13:56:12;1.20;;;0.70;;
71475;SDS011;59286;59.274;17.974;2023-08-31T13:58:38;1.35;;;0.60;;
71475;SDS011;59286;59.274;17.974;2023-08-31T14:01:04;0.68;;;0.60;;
71475;SDS011;59286;59.274;17.974;2023-08-31T14:03:30;1.88;;;0.60;;
71475;SDS011;59286;59.274;17.974;2023-08-31T14:05:55;1.92;;;0.60;;
71475;SDS011;59286;59.274;17.974;2023-08-31T14:08:21;2.88;;;0.60;;
71475;SDS011;59286;59.274;17.974;2023-08-31T14:10:46;2.40;;;0.60;;
71475;SDS011;59286;59.274;17.974;2023-08-31T14:13:12;1.70;;;0.60;;
71475;SDS011;59286;59.274;17.974;2023-08-31T14:15:37;0.70;;;0.60;;
71475;SDS011;59286;59.274;17.974;2023-08-31T14:18:09;0.75;;;0.50;;
71475;SDS011;59286;59.274;17.974;2023-08-31T14:20:34;1.20;;;0.60;;
71475;SDS011;59286;59.274;17.974;2023-08-31T14:23:00;1.48;;;0.50;;
71475;SDS011;59286;59.274;17.974;2023-08-31T14:25:25;0.95;;;0.60;;
71475;SDS011;59286;59.274;17.974;2023-08-31T14:27:50;0.60;;;0.60;;
71475;SDS011;59286;59.274;17.974;2023-08-31T14:30:16;0.60;;;0.60;;
71475;SDS011;59286;59.274;17.974;2023-08-31T14:32:41;2.05;;;0.60;;
71475;SDS011;59286;59.274;17.974;2023-08-31T14:35:07;2.25;;;0.60;;
71475;SDS011;59286;59.274;17.974;2023-08-31T14:37:32;1.35;;;0.50;;
71475;SDS011;59286;59.274;17.974;2023-08-31T14:39:57;0.60;;;0.40;;
71475;SDS011;59286;59.274;17.974;2023-08-31T14:42:23;1.33;;;0.70;;
71475;SDS011;59286;59.274;17.974;2023-08-31T14:44:49;0.82;;;0.60;;
71475;SDS011;59286;59.274;17.974;2023-08-31T14:47:14;1.20;;;0.73;;